アナディリ の空港の天気 - METARとTAF

アナディリ・ウゴルヌイ空港 ( UHMA / DYR ) - ロシア アナディリ
飛行場実況気象(Metar)
観測時間10/16 18:00 MAGT (10/16 07:00 UTC)
風向・風速東北東 14m/s 瞬間風速21m/s
視程10km以上
天気現象弱い雨
少しの雲 雲底高度 270m
全天の4割程度の雲 雲底高度 670m
気温3℃
湿度87%
気圧976hPa
METARUHMA 160700Z 07014G21MPS 9999 -RA FEW009 SCT022 03/01 Q0976 R01/////// NOSIG RMK TDZ R01/07014G21MPS END R01/06015G23MPS QFE728/0971
過去の天気等 Google飛行場航空写真 Wunderground天気予報

過去48時間のMETAR

飛行場予報(TAF)
発表時間: 10/16 15:53 MAGT (10/16 04:53 UTC)
予報対象時間: 16日17時 MAGT ~ 17日17時 MAGT
風向・風速東 20m/s 瞬間風速 28m/s
視程5000m
天気現象弱い雨 もや
全天の4割程度の雲 雲底高度 240m
全天の8割程度の雲 雲底高度 610m
16日17時 MAGT ~ 16日23時 MAGT に一時的に
風向・風速東 15m/s 瞬間風速 20m/s
視程1000m
天気現象しゅう雨雪 もや
全天の8割程度の雲 雲底高度 150m
全天の8割程度の積乱雲 雲底高度 460m
16日23時 MAGT から
風向・風速北東 8m/s 瞬間風速 13m/s
視程10km以上
全天の4割程度の雲 雲底高度 240m
全天の8割程度の雲 雲底高度 760m
16日23時 MAGT ~ 17日11時 MAGT に一時的に
風向・風速東 11m/s 瞬間風速 16m/s
視程1000m
天気現象しゅう雨雪 もや
全天の8割程度の雲 雲底高度 240m
全天の8割程度の積乱雲 雲底高度 460m
17日11時 MAGT ~ 17日17時 MAGT に一時的に
風向・風速北 6m/s 瞬間風速 11m/s
全天の4割程度の雲 雲底高度 150m
全天の8割程度の雲 雲底高度 610m
TAF UHMA 160453Z 1606/1706 08020G28MPS 5000 -RA BR SCT008 BKN020
TEMPO 1606/1612 09015G20MPS 1000 SHRASN BR BKN005 BKN015CB
FM161200 04008G13MPS 9999 SCT008 BKN025
TEMPO 1612/1624 08011G16MPS 1000 SHRASN BR BKN008 BKN015CB
TEMPO 1700/1706 01006G11MPS SCT005 BKN020